createdAt,value
2023-03-15T07:04:56.833Z,99.99
2023-03-15T07:05:56.722Z,99.99
2023-03-15T07:06:56.656Z,99.99
2023-03-15T07:07:56.665Z,99.99
2023-03-15T07:08:56.649Z,99.99
2023-03-15T07:09:56.728Z,99.99
2023-03-15T07:10:56.682Z,99.99
2023-03-15T07:11:56.597Z,99.99
2023-03-15T07:12:56.634Z,99.99
2023-03-15T07:13:56.563Z,99.99
2023-03-15T07:14:56.549Z,99.99
2023-03-15T07:15:56.708Z,99.99
2023-03-15T07:16:56.510Z,99.99
2023-03-15T07:17:56.502Z,99.99
2023-03-15T07:18:56.597Z,99.99
2023-03-15T07:19:57.024Z,99.99
2023-03-15T07:20:56.460Z,99.99
2023-03-15T07:21:56.462Z,99.99
2023-03-15T07:22:56.438Z,99.99
2023-03-15T07:23:56.436Z,99.99
2023-03-15T07:24:56.405Z,99.99
2023-03-15T07:25:56.640Z,99.99
2023-03-15T07:26:56.568Z,99.99
2023-03-15T07:27:56.438Z,99.99
2023-03-15T07:28:56.436Z,99.99
2023-03-15T07:29:56.466Z,99.99
2023-03-15T07:30:56.419Z,99.99
2023-03-15T07:31:56.438Z,99.99
2023-03-15T07:32:56.635Z,99.99
2023-03-15T07:33:56.461Z,99.99
2023-03-15T07:34:56.291Z,99.99
2023-03-15T07:35:56.397Z,99.99
2023-03-15T07:36:56.290Z,99.99
2023-03-15T07:37:56.397Z,99.80
2023-03-15T07:38:56.265Z,99.96
2023-03-15T07:39:56.255Z,99.99
2023-03-15T07:40:56.224Z,99.80
2023-03-15T07:41:56.258Z,99.49
2023-03-15T07:42:56.237Z,99.59
2023-03-15T07:43:58.393Z,99.86
2023-03-15T07:44:56.191Z,99.99
2023-03-15T07:45:56.247Z,99.99
2023-03-15T07:46:56.286Z,99.51
2023-03-15T07:47:56.654Z,99.61
2023-03-15T07:48:56.179Z,99.99
2023-03-15T07:49:56.091Z,98.88
2023-03-15T07:50:56.076Z,98.99
2023-03-15T07:52:55.302Z,97.74
2023-03-15T07:53:55.274Z,97.27
2023-03-15T07:54:55.250Z,98.57
2023-03-15T07:55:55.270Z,99.09
2023-03-15T07:56:55.225Z,99.15
2023-03-15T07:57:55.209Z,98.52
2023-03-15T07:58:55.205Z,97.28
2023-03-15T07:59:55.197Z,96.76
2023-03-15T08:00:55.168Z,95.99
2023-03-15T08:01:55.221Z,96.20
2023-03-15T08:02:55.185Z,95.99
2023-03-15T08:03:55.137Z,96.92
2023-03-15T08:04:55.116Z,95.10
2023-03-15T08:05:56.106Z,95.04
2023-03-15T08:06:55.111Z,96.29
2023-03-15T08:07:55.101Z,97.90
2023-03-15T08:08:55.095Z,97.24
2023-03-15T08:09:55.062Z,95.84
2023-03-15T08:10:55.048Z,94.39
2023-03-15T08:11:55.037Z,94.39
2023-03-15T08:12:55.016Z,94.02
2023-03-15T08:13:55.006Z,94.06
2023-03-15T08:14:55.021Z,96.14
2023-03-15T08:15:55.078Z,96.24
2023-03-15T08:16:55.043Z,95.20
2023-03-15T08:17:54.987Z,96.66
2023-03-15T08:18:54.948Z,96.76
2023-03-15T08:19:54.977Z,96.03
2023-03-15T08:20:54.919Z,94.79
2023-03-15T08:21:54.908Z,95.57
2023-03-15T08:22:54.897Z,95.06
2023-03-15T08:23:54.909Z,96.61
2023-03-15T08:24:54.897Z,96.51
2023-03-15T08:25:54.884Z,95.16
2023-03-15T08:26:54.859Z,94.85
2023-03-15T08:27:54.842Z,94.74
2023-03-15T08:28:54.844Z,94.43
2023-03-15T08:29:54.854Z,95.57
2023-03-15T08:30:54.801Z,94.60
2023-03-15T08:31:54.880Z,93.93
2023-03-15T08:32:54.832Z,93.79
2023-03-15T08:33:54.784Z,94.37
2023-03-15T08:34:54.800Z,93.85
2023-03-15T08:35:54.828Z,92.61
2023-03-15T08:36:54.811Z,93.43
2023-03-15T08:37:54.719Z,93.70
2023-03-15T08:38:54.704Z,91.01
2023-03-15T08:39:54.700Z,91.26
2023-03-15T08:40:54.704Z,91.78
2023-03-15T08:41:54.672Z,91.30
2023-03-15T08:42:54.674Z,92.96
2023-03-15T08:43:54.662Z,94.20
2023-03-15T08:44:54.660Z,93.95
2023-03-15T08:46:01.072Z,94.06
2023-03-15T08:46:55.768Z,93.04
2023-03-15T08:47:54.606Z,88.10
2023-03-15T08:48:54.582Z,89.09
2023-03-15T08:49:54.585Z,86.82
2023-03-15T08:50:54.565Z,86.96
2023-03-15T08:51:54.550Z,88.16
2023-03-15T08:52:54.574Z,88.43
2023-03-15T08:53:54.546Z,85.27
2023-03-15T08:54:54.511Z,86.73
2023-03-15T08:55:54.506Z,89.04
2023-03-15T08:56:54.484Z,89.25
2023-03-15T08:57:54.509Z,89.56
2023-03-15T08:58:54.460Z,90.23
2023-03-15T08:59:54.466Z,90.84
2023-03-15T09:00:54.432Z,90.74
2023-03-15T09:01:54.443Z,90.84
2023-03-15T09:02:54.413Z,90.91
2023-03-15T09:03:54.456Z,91.22
2023-03-15T09:04:54.414Z,90.14
2023-03-15T09:05:54.371Z,90.45
2023-03-15T09:06:55.072Z,89.83
2023-03-15T09:07:54.354Z,89.07
2023-03-15T09:08:54.351Z,88.76
2023-03-15T09:09:54.370Z,87.79
2023-03-15T09:10:54.361Z,88.20
2023-03-15T09:11:54.317Z,86.28
2023-03-15T09:12:54.291Z,86.90
2023-03-15T09:13:54.313Z,87.41
2023-03-15T09:14:54.296Z,87.66
2023-03-15T09:15:54.261Z,88.32
2023-03-15T09:16:54.304Z,89.04
2023-03-15T09:17:54.281Z,89.15
2023-03-15T09:18:54.216Z,88.94
2023-03-15T09:19:54.222Z,88.94
2023-03-15T09:20:54.216Z,89.09
2023-03-15T09:21:54.218Z,89.29
2023-03-15T09:22:54.188Z,89.29
2023-03-15T09:23:54.231Z,88.67
2023-03-15T09:24:54.176Z,88.36
2023-03-15T09:25:54.147Z,88.67
2023-03-15T09:26:54.129Z,88.88
2023-03-15T09:27:54.136Z,88.88
2023-03-15T09:28:54.123Z,89.03
2023-03-15T09:29:54.140Z,89.86
2023-03-15T09:30:54.212Z,90.58
2023-03-15T09:31:54.073Z,90.16
2023-03-15T09:32:54.080Z,90.37
2023-03-15T09:33:54.046Z,90.06
2023-03-15T09:34:54.044Z,89.86
2023-03-15T09:35:54.069Z,89.03
2023-03-15T09:36:54.015Z,89.34
2023-03-15T09:37:54.023Z,89.34
2023-03-15T09:38:54.018Z,88.53
2023-03-15T09:39:53.986Z,87.31
2023-03-15T09:40:53.976Z,86.61
2023-03-15T09:41:53.965Z,84.43
2023-03-15T09:42:53.950Z,81.57
2023-03-15T09:43:53.959Z,80.47
2023-03-15T09:44:53.917Z,78.99
2023-03-15T09:45:53.985Z,75.77
2023-03-15T09:46:54.018Z,78.28
2023-03-15T09:47:53.885Z,78.21
2023-03-15T09:48:53.923Z,78.93
2023-03-15T09:49:53.858Z,77.59
2023-03-15T09:50:53.848Z,77.04
2023-03-15T09:51:53.833Z,77.31
2023-03-15T09:52:53.840Z,76.21
2023-03-15T09:53:53.832Z,74.29
2023-03-15T09:54:53.819Z,74.36
2023-03-15T09:55:53.783Z,71.90
2023-03-15T09:56:53.756Z,68.21
2023-03-15T09:57:53.858Z,71.45
2023-03-15T09:58:53.751Z,74.29
2023-03-15T09:59:53.726Z,74.67
2023-03-15T10:00:53.726Z,73.33
2023-03-15T10:01:53.775Z,72.72
2023-03-15T10:02:53.685Z,73.91
2023-03-15T10:03:53.822Z,74.36
2023-03-15T10:04:53.662Z,75.26
2023-03-15T10:05:53.657Z,76.73
2023-03-15T10:06:53.645Z,77.97
2023-03-15T10:07:53.641Z,76.80
2023-03-15T10:08:53.604Z,77.21
2023-03-15T10:09:53.613Z,74.29
2023-03-15T10:10:53.605Z,73.30
2023-03-15T10:11:53.572Z,72.00
2023-03-15T10:12:53.546Z,71.41
2023-03-15T10:13:53.548Z,70.08
2023-03-15T10:14:53.546Z,69.36
2023-03-15T10:15:53.625Z,69.77
2023-03-15T10:16:53.538Z,70.18
2023-03-15T10:17:53.493Z,69.98
2023-03-15T10:18:53.498Z,71.72
2023-03-15T10:19:53.463Z,71.21
2023-03-15T10:20:53.467Z,72.06
2023-03-15T10:21:53.475Z,74.53
2023-03-15T10:22:53.411Z,76.15
2023-03-15T10:23:53.408Z,73.64
2023-03-15T10:24:53.394Z,74.36
2023-03-15T10:25:53.371Z,74.88
2023-03-15T10:26:53.449Z,75.25
2023-03-15T10:27:53.346Z,71.72
2023-03-15T10:28:53.331Z,72.68
2023-03-15T10:29:53.329Z,70.36
2023-03-15T10:30:53.319Z,70.46
2023-03-15T10:31:53.377Z,66.84
2023-03-15T10:32:53.313Z,66.25
2023-03-15T10:33:53.283Z,68.30
2023-03-15T10:34:53.240Z,68.10
2023-03-15T10:35:58.625Z,67.90
2023-03-15T10:36:54.295Z,66.42
2023-03-15T10:37:53.220Z,66.48
2023-03-15T10:38:53.197Z,67.27
2023-03-15T10:39:53.167Z,67.76
2023-03-15T10:40:53.196Z,66.25
2023-03-15T10:41:53.234Z,66.04
2023-03-15T10:42:53.148Z,67.76
2023-03-15T10:43:53.128Z,66.96
2023-03-15T10:44:53.197Z,66.55
2023-03-15T10:45:53.263Z,67.14
2023-03-15T10:46:53.173Z,66.52
2023-03-15T10:48:00.255Z,68.27
2023-03-15T10:48:54.125Z,66.42
2023-03-15T10:49:53.039Z,67.96
2023-03-15T10:50:53.031Z,69.02
2023-03-15T10:51:53.228Z,64.76
2023-03-15T10:52:53.016Z,66.53
2023-03-15T10:53:53.018Z,66.67
2023-03-15T10:55:02.362Z,65.88
2023-03-15T10:55:53.966Z,65.80
2023-03-15T10:56:52.946Z,65.94
2023-03-15T10:57:52.965Z,67.95
2023-03-15T10:59:09.531Z,69.70
2023-03-15T10:59:53.907Z,64.28
2023-03-15T11:00:52.936Z,62.35
2023-03-15T11:01:53.064Z,62.70
2023-03-15T11:02:52.894Z,62.59
2023-03-15T11:03:52.851Z,64.27
2023-03-15T11:04:52.823Z,64.61
2023-03-15T11:05:52.829Z,64.78
2023-03-15T11:06:52.798Z,64.68
2023-03-15T11:07:52.842Z,65.09
2023-03-15T11:08:52.773Z,66.16
2023-03-15T11:09:52.768Z,65.48
2023-03-15T11:10:52.783Z,65.14
2023-03-15T11:11:52.752Z,64.60
2023-03-15T11:12:52.734Z,62.93
2023-03-15T11:13:52.724Z,62.52
2023-03-15T11:14:52.685Z,64.06
2023-03-15T11:15:52.747Z,62.85
2023-03-15T11:16:52.667Z,63.60
2023-03-15T11:17:52.637Z,64.87
2023-03-15T11:18:52.723Z,64.46
2023-03-15T11:19:52.643Z,64.73
2023-03-15T11:20:52.593Z,64.29
2023-03-15T11:21:52.595Z,63.89
2023-03-15T11:22:52.699Z,64.53
2023-03-15T11:23:52.579Z,64.43
2023-03-15T11:24:52.618Z,65.22
2023-03-15T11:25:52.556Z,60.98
2023-03-15T11:26:52.549Z,55.87
2023-03-15T11:27:52.556Z,58.57
2023-03-15T11:28:52.507Z,59.80
2023-03-15T11:29:52.484Z,59.39
2023-03-15T11:30:52.469Z,55.79
2023-03-15T11:31:52.481Z,54.95
2023-03-15T11:32:52.456Z,54.41
2023-03-15T11:33:52.448Z,54.08
2023-03-15T11:34:52.454Z,53.89
2023-03-15T11:35:52.425Z,55.87
2023-03-15T11:37:05.358Z,56.72
2023-03-15T11:37:56.715Z,57.26
2023-03-15T11:38:53.356Z,56.98
2023-03-15T11:39:58.776Z,58.65
2023-03-15T11:40:53.321Z,59.45
2023-03-15T11:41:52.322Z,60.27
2023-03-15T11:42:52.334Z,59.86
2023-03-15T11:43:52.337Z,60.06
2023-03-15T11:44:52.277Z,60.30
2023-03-15T11:45:52.340Z,60.33
2023-03-15T11:46:52.255Z,60.97
2023-03-15T11:47:52.350Z,62.82
2023-03-15T11:48:52.221Z,62.31
2023-03-15T11:49:52.221Z,63.03
2023-03-15T11:50:52.227Z,64.06
2023-03-15T11:51:52.218Z,62.31
2023-03-15T11:52:52.213Z,62.13
2023-03-15T11:53:52.174Z,62.21
2023-03-15T11:54:52.141Z,60.91
2023-03-15T11:55:52.156Z,59.11
2023-03-15T11:56:52.109Z,57.88
2023-03-15T11:57:52.144Z,58.29
2023-03-15T11:58:52.077Z,58.36
2023-03-15T11:59:52.142Z,57.41
2023-03-15T12:00:52.084Z,56.13
2023-03-15T12:01:52.151Z,56.10
2023-03-15T12:02:52.050Z,54.74
2023-03-15T12:03:52.061Z,55.51
2023-03-15T12:04:52.000Z,56.15
2023-03-15T12:05:52.004Z,55.64
2023-03-15T12:06:51.965Z,55.26
2023-03-15T12:07:51.961Z,55.59
2023-03-15T12:08:52.008Z,55.77
2023-03-15T12:09:51.968Z,55.57
2023-03-15T12:10:51.953Z,54.85
2023-03-15T12:11:51.912Z,53.64
2023-03-15T12:12:51.905Z,55.00
2023-03-15T12:13:51.918Z,56.26
2023-03-15T12:14:51.852Z,57.59
2023-03-15T12:15:51.877Z,57.80
2023-03-15T12:16:51.871Z,57.73
2023-03-15T12:17:51.811Z,58.34
2023-03-15T12:18:51.843Z,58.54
2023-03-15T12:19:51.781Z,59.24
2023-03-15T12:20:51.800Z,57.57
2023-03-15T12:21:51.816Z,57.82
2023-03-15T12:22:51.775Z,56.49
2023-03-15T12:23:51.739Z,55.98
2023-03-15T12:24:51.781Z,56.38
2023-03-15T12:25:55.037Z,57.18
2023-03-15T12:26:51.704Z,56.79
2023-03-15T12:27:51.691Z,56.72
2023-03-15T12:28:51.691Z,58.73
2023-03-15T12:29:51.694Z,59.06
2023-03-15T12:30:51.693Z,59.89
2023-03-15T12:31:51.667Z,59.14
2023-03-15T12:32:51.737Z,58.59
2023-03-15T12:33:51.571Z,59.19
2023-03-15T12:34:52.060Z,58.21
2023-03-15T12:35:51.628Z,58.26
2023-03-15T12:36:51.546Z,55.94
2023-03-15T12:37:51.523Z,53.95
2023-03-15T12:38:51.558Z,52.42
2023-03-15T12:39:51.514Z,53.41
2023-03-15T12:40:51.497Z,52.95
2023-03-15T12:41:51.517Z,54.44
2023-03-15T12:42:51.542Z,55.51
2023-03-15T12:43:51.443Z,56.05
2023-03-15T12:44:51.443Z,57.72
2023-03-15T12:45:51.480Z,56.31
2023-03-15T12:46:51.420Z,57.26
2023-03-15T12:47:51.399Z,55.46
2023-03-15T12:48:51.409Z,56.23
2023-03-15T12:49:51.381Z,54.46
2023-03-15T12:50:51.370Z,53.61
2023-03-15T12:51:51.341Z,52.18
2023-03-15T12:52:51.338Z,53.61
2023-03-15T12:53:51.334Z,52.69
2023-03-15T12:54:51.285Z,51.46
2023-03-15T12:55:54.056Z,53.77
2023-03-15T12:56:52.344Z,53.08
2023-03-15T12:57:51.276Z,51.28
2023-03-15T12:58:51.274Z,53.77
2023-03-15T12:59:51.226Z,54.07
2023-03-15T13:00:51.309Z,54.20
2023-03-15T13:01:51.261Z,54.10
2023-03-15T13:02:51.282Z,54.41
2023-03-15T13:03:51.158Z,54.85
2023-03-15T13:04:51.178Z,55.26
2023-03-15T13:06:02.836Z,54.46
2023-03-15T13:06:52.230Z,54.56
2023-03-15T13:07:51.692Z,54.87
2023-03-15T13:08:51.129Z,55.05
2023-03-15T13:09:51.138Z,54.33
2023-03-15T13:10:51.086Z,55.05
2023-03-15T13:11:51.071Z,55.85
2023-03-15T13:12:51.067Z,55.38
2023-03-15T13:13:51.069Z,54.08
2023-03-15T13:14:51.051Z,53.82
2023-03-15T13:15:51.026Z,53.77
2023-03-15T13:16:51.020Z,50.65
2023-03-15T13:17:51.012Z,49.40
2023-03-15T13:18:51.026Z,49.58
2023-03-15T13:19:50.941Z,50.45
2023-03-15T13:20:50.926Z,47.27
2023-03-15T13:21:50.911Z,47.83
2023-03-15T13:22:55.498Z,45.67
2023-03-15T13:23:50.885Z,45.26
2023-03-15T13:24:50.883Z,45.51
2023-03-15T13:25:50.870Z,45.57
2023-03-15T13:26:50.846Z,44.43
2023-03-15T13:27:50.908Z,45.01
2023-03-15T13:28:50.844Z,44.32
2023-03-15T13:29:50.825Z,43.02
2023-03-15T13:30:50.841Z,44.78
2023-03-15T13:31:50.768Z,44.46
2023-03-15T13:32:50.912Z,43.81
2023-03-15T13:33:50.773Z,42.90
2023-03-15T13:34:50.831Z,44.53
2023-03-15T13:35:50.803Z,45.41
2023-03-15T13:36:50.737Z,46.49
2023-03-15T13:37:50.719Z,44.81
2023-03-15T13:38:50.718Z,43.75
2023-03-15T13:39:50.699Z,42.92
2023-03-15T13:40:50.665Z,42.22
2023-03-15T13:41:50.656Z,43.61
2023-03-15T13:42:50.638Z,46.03
2023-03-15T13:43:50.665Z,45.45
2023-03-15T13:44:50.606Z,46.50
2023-03-15T13:45:50.591Z,46.31
2023-03-15T13:46:50.632Z,45.35
2023-03-15T13:47:50.614Z,44.70
2023-03-15T13:48:50.559Z,43.24
2023-03-15T13:49:50.537Z,43.63
2023-03-15T13:50:50.563Z,43.82
2023-03-15T13:51:50.514Z,43.82
2023-03-15T13:52:58.030Z,44.71
2023-03-15T13:53:50.558Z,44.24
2023-03-15T13:54:50.528Z,44.57
2023-03-15T13:55:50.526Z,44.65
2023-03-15T13:56:50.580Z,43.51
2023-03-15T13:57:50.529Z,44.00
2023-03-15T13:58:50.484Z,44.46
2023-03-15T13:59:50.443Z,43.43
2023-03-15T14:00:57.963Z,43.00
2023-03-15T14:01:50.434Z,41.63
2023-03-15T14:02:50.429Z,41.86
2023-03-15T14:03:50.409Z,42.02
2023-03-15T14:04:50.335Z,43.63
2023-03-15T14:05:50.330Z,45.86
2023-03-15T14:06:58.864Z,48.57
2023-03-15T14:07:59.080Z,47.96
2023-03-15T14:08:50.281Z,47.64
2023-03-15T14:09:50.334Z,48.49
2023-03-15T14:10:50.277Z,49.02
2023-03-15T14:11:50.255Z,49.13
2023-03-15T14:12:50.283Z,49.64
2023-03-15T14:13:50.244Z,48.90
2023-03-15T14:14:50.249Z,49.39
2023-03-15T14:15:50.306Z,49.04
2023-03-15T14:17:04.235Z,49.11
2023-03-15T14:17:51.158Z,47.41
2023-03-15T14:18:50.158Z,47.37
2023-03-15T14:19:50.135Z,46.00
2023-03-15T14:20:50.144Z,44.96
2023-03-15T14:21:50.133Z,44.53
2023-03-15T14:22:52.161Z,44.22
2023-03-15T14:23:50.131Z,45.83
2023-03-15T14:24:50.085Z,45.20
2023-03-15T14:25:50.065Z,43.53
2023-03-15T14:26:50.104Z,42.51
2023-03-15T14:27:50.037Z,40.48
2023-03-15T14:28:50.048Z,39.09
2023-03-15T14:29:50.098Z,39.98
2023-03-15T14:30:50.025Z,41.08
2023-03-15T14:31:50.121Z,42.49
2023-03-15T14:32:50.089Z,41.55
2023-03-15T14:33:49.999Z,40.23
2023-03-15T14:34:49.971Z,40.94
2023-03-15T14:35:49.984Z,38.62
2023-03-15T14:36:49.944Z,39.76
2023-03-15T14:37:49.901Z,41.41
2023-03-15T14:38:49.929Z,42.76
2023-03-15T14:39:49.880Z,43.57
2023-03-15T14:40:49.866Z,44.61
2023-03-15T14:41:49.861Z,44.00
2023-03-15T14:42:49.868Z,43.37
2023-03-15T14:43:49.860Z,44.06
2023-03-15T14:44:49.830Z,42.94
2023-03-15T14:45:49.859Z,41.28
2023-03-15T14:46:49.802Z,40.61
2023-03-15T14:47:56.674Z,44.46
2023-03-15T14:48:50.788Z,42.14
2023-03-15T14:49:49.775Z,43.16
2023-03-15T14:50:49.803Z,43.57
2023-03-15T14:51:49.754Z,42.96
2023-03-15T14:52:49.692Z,43.38
2023-03-15T14:53:49.693Z,41.24
2023-03-15T14:54:49.674Z,41.26
2023-03-15T14:55:49.675Z,41.56
2023-03-15T14:56:49.692Z,42.18
2023-03-15T14:57:49.644Z,42.08
2023-03-15T14:58:49.671Z,43.90
2023-03-15T14:59:49.653Z,43.67
2023-03-15T15:00:49.718Z,41.73
2023-03-15T15:01:49.612Z,41.83
2023-03-15T15:02:49.578Z,41.85
2023-03-15T15:03:49.562Z,42.77
2023-03-15T15:04:49.594Z,43.10
2023-03-15T15:05:49.544Z,44.73
2023-03-15T15:06:49.549Z,42.53
2023-03-15T15:07:49.494Z,45.82
2023-03-15T15:08:49.529Z,45.10
2023-03-15T15:09:49.539Z,42.67
2023-03-15T15:10:49.460Z,43.71
2023-03-15T15:11:49.462Z,43.63
2023-03-15T15:12:56.164Z,44.14
2023-03-15T15:13:50.440Z,47.50
2023-03-15T15:14:49.439Z,45.06
2023-03-15T15:15:55.641Z,43.53
2023-03-15T15:16:50.487Z,43.96
2023-03-15T15:17:49.391Z,46.42
2023-03-15T15:18:49.371Z,47.22
2023-03-15T15:19:49.346Z,47.09
2023-03-15T15:20:49.351Z,49.14
2023-03-15T15:21:49.360Z,46.27
2023-03-15T15:22:49.354Z,44.55
2023-03-15T15:23:58.538Z,47.85
2023-03-15T15:24:51.462Z,46.44
2023-03-15T15:25:49.316Z,47.89
2023-03-15T15:26:49.253Z,47.69
2023-03-15T15:27:49.246Z,45.66
2023-03-15T15:28:49.263Z,46.91
2023-03-15T15:29:49.216Z,46.30
2023-03-15T15:30:49.911Z,45.99
2023-03-15T15:31:49.296Z,46.32
2023-03-15T15:32:49.406Z,47.12
2023-03-15T15:33:49.257Z,47.22
2023-03-15T15:34:49.192Z,47.42
2023-03-15T15:35:49.181Z,49.35
2023-03-15T15:36:49.187Z,46.48
2023-03-15T15:37:49.113Z,46.48
2023-03-15T15:38:49.111Z,47.59
2023-03-15T15:39:49.075Z,46.77
2023-03-15T15:40:49.064Z,46.87
2023-03-15T15:41:49.061Z,44.84
2023-03-15T15:42:49.033Z,44.94
2023-03-15T15:43:49.038Z,45.87
2023-03-15T15:44:49.033Z,45.66
2023-03-15T15:45:49.026Z,45.76
2023-03-15T15:46:48.976Z,43.51
2023-03-15T15:47:48.952Z,43.10
2023-03-15T15:48:48.941Z,44.02
2023-03-15T15:49:48.984Z,45.04
2023-03-15T15:50:48.925Z,45.25
2023-03-15T15:51:48.916Z,46.07
2023-03-15T15:52:48.899Z,45.87
2023-03-15T15:53:48.884Z,48.43
2023-03-15T15:54:48.892Z,46.17
2023-03-15T15:55:48.926Z,46.89
2023-03-15T15:56:48.846Z,48.35
2023-03-15T15:57:48.826Z,48.46
2023-03-15T15:58:48.827Z,48.56
2023-03-15T15:59:48.799Z,50.10
2023-03-15T16:00:48.820Z,49.38
2023-03-15T16:01:59.675Z,51.74
2023-03-15T16:02:49.850Z,51.53
2023-03-15T16:03:48.741Z,50.22
2023-03-15T16:04:48.773Z,49.81
2023-03-15T16:05:48.775Z,50.32
2023-03-15T16:06:48.723Z,50.74
2023-03-15T16:07:48.701Z,48.17
2023-03-15T16:08:48.751Z,49.11
2023-03-15T16:09:48.677Z,49.84
2023-03-15T16:10:48.686Z,51.99
2023-03-15T16:11:48.661Z,50.96
2023-03-15T16:12:48.736Z,50.66
2023-03-15T16:13:48.636Z,50.24
2023-03-15T16:14:48.622Z,50.37
2023-03-15T16:15:48.686Z,49.96
2023-03-15T16:16:48.600Z,50.48
2023-03-15T16:17:48.561Z,51.71
2023-03-15T16:18:48.631Z,49.96
2023-03-15T16:19:48.539Z,50.06
2023-03-15T16:20:48.523Z,51.09
2023-03-15T16:21:48.519Z,51.71
2023-03-15T16:22:48.660Z,53.87
2023-03-15T16:23:48.466Z,51.73
2023-03-15T16:24:48.481Z,51.32
2023-03-15T16:25:48.462Z,54.10
2023-03-15T16:26:48.555Z,53.28
2023-03-15T16:27:48.474Z,54.10
2023-03-15T16:28:48.453Z,53.48
2023-03-15T16:29:48.396Z,52.35
2023-03-15T16:30:48.435Z,52.76
2023-03-15T16:31:48.346Z,52.56
2023-03-15T16:32:48.394Z,52.25
2023-03-15T16:33:48.322Z,53.79
2023-03-15T16:34:48.309Z,54.02
2023-03-15T16:35:48.326Z,52.78
2023-03-15T16:36:49.542Z,52.37
2023-03-15T16:37:48.361Z,51.96
2023-03-15T16:38:48.338Z,52.06
2023-03-15T16:39:48.285Z,55.46
2023-03-15T16:40:48.280Z,54.43
2023-03-15T16:41:48.251Z,55.69
2023-03-15T16:42:48.258Z,55.90
2023-03-15T16:43:49.469Z,54.35
2023-03-15T16:44:48.183Z,54.56
2023-03-15T16:45:48.283Z,54.87
2023-03-15T16:46:48.423Z,56.00
2023-03-15T16:47:48.162Z,58.50
2023-03-15T16:48:48.185Z,59.53
2023-03-15T16:49:48.101Z,59.94
2023-03-15T16:50:48.229Z,58.84
2023-03-15T16:51:48.133Z,59.35
2023-03-15T16:52:48.105Z,57.50
2023-03-15T16:53:48.077Z,58.42
2023-03-15T16:54:48.961Z,58.53
2023-03-15T16:55:48.045Z,58.97
2023-03-15T16:56:48.021Z,58.45
2023-03-15T16:57:48.046Z,57.93
2023-03-15T16:58:47.998Z,58.17
2023-03-15T16:59:47.964Z,57.45
2023-03-15T17:00:48.372Z,57.24
2023-03-15T17:01:48.015Z,56.93
2023-03-15T17:02:47.892Z,57.14
2023-03-15T17:03:47.904Z,60.88
2023-03-15T17:04:47.956Z,60.26
2023-03-15T17:05:47.944Z,60.16
2023-03-15T17:06:47.925Z,60.70
2023-03-15T17:07:47.918Z,60.70
2023-03-15T17:08:47.843Z,60.91
2023-03-15T17:09:47.852Z,60.83
2023-03-15T17:10:47.842Z,60.83
2023-03-15T17:11:47.844Z,60.42
2023-03-15T17:12:47.881Z,60.73
2023-03-15T17:13:47.881Z,60.31
2023-03-15T17:14:47.782Z,60.11
2023-03-15T17:15:48.062Z,60.03
2023-03-15T17:16:47.861Z,60.44
2023-03-15T17:17:47.785Z,60.75
2023-03-15T17:18:47.760Z,61.07
2023-03-15T17:19:47.953Z,60.75
2023-03-15T17:20:47.894Z,60.24
2023-03-15T17:21:47.855Z,60.44
2023-03-15T17:22:47.900Z,60.75
2023-03-15T17:23:47.855Z,61.17
2023-03-15T17:24:47.958Z,61.48
2023-03-15T17:25:47.901Z,60.89
2023-03-15T17:26:47.771Z,60.78
2023-03-15T17:27:47.844Z,61.20
2023-03-15T17:28:47.670Z,61.51
2023-03-15T17:29:47.660Z,62.34
2023-03-15T17:30:49.804Z,62.16
2023-03-15T17:31:47.715Z,63.29
2023-03-15T17:32:47.840Z,62.98
2023-03-15T17:33:47.601Z,62.60
2023-03-15T17:34:47.705Z,62.60
2023-03-15T17:35:47.642Z,63.64
2023-03-15T17:36:47.534Z,63.95
2023-03-15T17:37:47.526Z,64.15
2023-03-15T17:38:47.797Z,64.36
2023-03-15T17:39:47.484Z,63.56
2023-03-15T17:40:47.805Z,62.94
2023-03-15T17:41:47.457Z,63.25
2023-03-15T17:42:47.514Z,63.66
2023-03-15T17:43:47.491Z,64.59
2023-03-15T17:44:47.476Z,64.59
2023-03-15T17:45:47.421Z,64.52
2023-03-15T17:46:47.511Z,64.42
2023-03-15T17:47:47.391Z,64.52
2023-03-15T17:48:47.445Z,64.52
2023-03-15T17:49:47.516Z,65.04
2023-03-15T17:50:47.494Z,65.66
2023-03-15T17:51:47.486Z,65.45
2023-03-15T17:52:47.577Z,64.86
2023-03-15T17:53:47.752Z,65.38
2023-03-15T17:54:47.501Z,66.41
2023-03-15T17:55:47.461Z,66.11
2023-03-15T17:56:47.574Z,66.31
2023-03-15T17:57:54.803Z,66.41
2023-03-15T17:58:48.458Z,65.90
2023-03-15T17:59:47.391Z,65.80
2023-03-15T18:00:47.320Z,66.35
2023-03-15T18:01:47.224Z,66.75
2023-03-15T18:02:54.998Z,67.90
2023-03-15T18:03:48.409Z,68.31
2023-03-15T18:04:47.652Z,68.55
2023-03-15T18:05:47.339Z,69.17
2023-03-15T18:06:47.307Z,68.65
2023-03-15T18:07:58.285Z,68.65
2023-03-15T18:08:48.168Z,69.73
2023-03-15T18:09:47.292Z,69.52
2023-03-15T18:10:47.198Z,69.52
2023-03-15T18:11:47.209Z,70.14
2023-03-15T18:12:47.194Z,70.14
2023-03-15T18:13:47.170Z,70.14
2023-03-15T18:14:47.105Z,69.86
2023-03-15T18:15:47.232Z,70.17
2023-03-15T18:16:47.149Z,71.21
2023-03-15T18:17:47.113Z,71.11
2023-03-15T18:18:47.071Z,70.79
2023-03-15T18:19:47.105Z,70.90
2023-03-15T18:20:47.197Z,71.11
2023-03-15T18:21:47.037Z,71.00
2023-03-15T18:22:47.185Z,71.42
2023-03-15T18:23:46.972Z,71.62
2023-03-15T18:24:47.288Z,71.83
2023-03-15T18:25:46.942Z,72.04
2023-03-15T18:26:46.987Z,71.73
2023-03-15T18:27:46.918Z,71.62
2023-03-15T18:28:46.994Z,71.31
2023-03-15T18:29:47.014Z,71.00
2023-03-15T18:30:47.044Z,70.79
2023-03-15T18:31:47.238Z,70.90
2023-03-15T18:32:47.300Z,70.90
2023-03-15T18:33:46.904Z,71.00
2023-03-15T18:34:46.935Z,71.31
2023-03-15T18:35:47.338Z,71.94
2023-03-15T18:36:46.845Z,71.83
2023-03-15T18:37:46.812Z,72.56
2023-03-15T18:38:46.948Z,72.25
2023-03-15T18:39:46.835Z,72.56
2023-03-15T18:40:46.819Z,72.87
2023-03-15T18:41:46.802Z,73.18
2023-03-15T18:42:46.869Z,73.80
2023-03-15T18:43:46.854Z,74.01
2023-03-15T18:44:46.704Z,74.26
2023-03-15T18:45:46.708Z,73.94
2023-03-15T18:46:46.726Z,74.46
2023-03-15T18:47:46.661Z,74.46
2023-03-15T18:48:46.822Z,75.81
2023-03-15T18:49:46.993Z,75.60
2023-03-15T18:50:46.804Z,75.60
2023-03-15T18:51:46.711Z,75.50
2023-03-15T18:52:46.752Z,75.40
2023-03-15T18:53:46.646Z,75.50
2023-03-15T18:54:46.550Z,75.60
2023-03-15T18:55:46.569Z,75.43
2023-03-15T18:56:46.641Z,75.12
2023-03-15T18:57:46.609Z,75.54
2023-03-15T18:58:46.476Z,75.74
2023-03-15T18:59:46.469Z,75.81
2023-03-15T19:00:46.452Z,75.81
2023-03-15T19:01:46.563Z,76.23
2023-03-15T19:02:46.529Z,76.02
2023-03-15T19:03:46.475Z,75.81
2023-03-15T19:04:46.386Z,75.81
2023-03-15T19:05:46.414Z,75.67
2023-03-15T19:06:46.349Z,75.67
2023-03-15T19:07:47.772Z,74.81
2023-03-15T19:08:46.339Z,74.98
2023-03-15T19:09:46.333Z,74.57
2023-03-15T19:10:46.305Z,74.46
2023-03-15T19:11:46.288Z,73.94
2023-03-15T19:12:46.287Z,73.43
2023-03-15T19:13:46.284Z,73.49
2023-03-15T19:14:46.291Z,74.11
2023-03-15T19:15:46.253Z,73.18
2023-03-15T19:16:46.334Z,73.08
2023-03-15T19:17:46.246Z,72.88
2023-03-15T19:18:46.235Z,72.88
2023-03-15T19:19:46.187Z,73.18
2023-03-15T19:20:46.212Z,73.18
2023-03-15T19:21:46.244Z,72.88
2023-03-15T19:22:46.212Z,72.74
2023-03-15T19:23:46.201Z,72.63
2023-03-15T19:24:46.170Z,72.84
2023-03-15T19:25:46.254Z,72.94
2023-03-15T19:26:46.125Z,72.84
2023-03-15T19:27:46.146Z,72.63
2023-03-15T19:28:46.072Z,72.11
2023-03-15T19:29:46.097Z,72.39
2023-03-15T19:30:46.115Z,72.63
2023-03-15T19:31:46.121Z,72.63
2023-03-15T19:32:46.152Z,72.94
2023-03-15T19:33:46.135Z,73.57
2023-03-15T19:34:46.056Z,73.36
2023-03-15T19:35:46.083Z,73.77
2023-03-15T19:36:45.980Z,73.05
2023-03-15T19:37:46.127Z,72.84
2023-03-15T19:38:45.977Z,73.05
2023-03-15T19:39:45.933Z,73.05
2023-03-15T19:40:45.949Z,72.94
2023-03-15T19:41:45.939Z,73.36
2023-03-15T19:42:45.950Z,72.94
2023-03-15T19:43:45.980Z,72.63
2023-03-15T19:44:45.869Z,73.15
2023-03-15T19:45:45.911Z,72.84
2023-03-15T19:46:45.919Z,72.84
2023-03-15T19:47:45.868Z,73.39
2023-03-15T19:48:45.884Z,73.91
2023-03-15T19:49:45.821Z,74.43
2023-03-15T19:50:45.790Z,74.77
2023-03-15T19:51:45.821Z,74.77
2023-03-15T20:02:33.307Z,73.84
2023-03-15T20:03:31.573Z,74.67
2023-03-15T20:04:31.576Z,74.67
2023-03-15T20:05:31.600Z,75.40
2023-03-15T20:06:31.797Z,75.60
2023-03-15T20:07:32.520Z,75.71